Time;durP1;ratioP1;P1;durP2;ratioP2;P2;SDS_P1;SDS_P2;PMS_P1;PMS_P2;Temp;Humidity;BMP_temperature;BMP_pressure;BME280_temperature;BME280_humidity;BME280_pressure;Samples;Min_cycle;Max_cycle;Signal;HPM_P1;HPM_P2
2023/07/09 00:01:59;;;;;;;5.63;2.35;;;22.50;99.90;;;;;;5073749;28;20069;-73
2023/07/09 00:04:24;;;;;;;11.27;3.17;;;22.40;99.90;;;;;;5073582;28;20036;-73
2023/07/09 00:06:51;;;;;;;5.90;2.40;;;22.40;99.90;;;;;;5072409;28;20174;-72
2023/07/09 00:09:21;;;;;;;5.18;2.10;;;22.40;99.90;;;;;;5074171;28;20040;-72
2023/07/09 00:11:48;;;;;;;10.20;2.60;;;22.30;99.90;;;;;;5073524;28;20016;-72
2023/07/09 00:14:16;;;;;;;8.13;2.22;;;22.30;99.90;;;;;;5073819;28;20028;-72
2023/07/09 00:16:46;;;;;;;11.93;2.65;;;22.30;99.90;;;;;;5072281;28;20499;-73
2023/07/09 00:19:20;;;;;;;8.35;3.35;;;22.30;99.90;;;;;;5074105;28;20407;-72
2023/07/09 00:21:52;;;;;;;8.45;2.40;;;22.20;99.90;;;;;;5072266;28;20036;-72
2023/07/09 00:24:18;;;;;;;7.32;2.05;;;22.20;99.90;;;;;;5072069;28;20115;-72
2023/07/09 00:26:44;;;;;;;6.82;2.13;;;22.20;99.90;;;;;;5072058;28;20460;-72
2023/07/09 00:29:13;;;;;;;5.35;2.63;;;22.10;99.90;;;;;;5073431;28;20021;-72
2023/07/09 00:31:40;;;;;;;6.40;2.47;;;22.10;99.90;;;;;;5073415;28;20016;-72
2023/07/09 00:34:07;;;;;;;4.32;1.60;;;22.00;99.90;;;;;;5073538;28;20486;-72
2023/07/09 00:36:34;;;;;;;4.38;1.95;;;22.00;99.90;;;;;;5073804;28;20021;-72
2023/07/09 00:39:04;;;;;;;5.30;2.40;;;22.00;99.90;;;;;;5071964;28;20078;-72
2023/07/09 00:41:36;;;;;;;5.75;2.22;;;22.00;99.90;;;;;;5073346;28;20384;-72
2023/07/09 00:44:21;;;;;;;5.03;1.88;;;22.00;99.90;;;;;;5071892;28;20025;-72
2023/07/09 00:46:49;;;;;;;4.45;2.30;;;22.00;99.90;;;;;;5073180;28;20028;-72
2023/07/09 00:49:26;;;;;;;6.78;2.17;;;22.00;99.90;;;;;;5073776;28;20457;-72
2023/07/09 00:51:53;;;;;;;3.50;1.85;;;22.00;99.90;;;;;;5073212;28;20383;-72
2023/07/09 00:54:36;;;;;;;8.18;2.35;;;22.00;99.90;;;;;;5071790;28;20538;-72
2023/07/09 00:57:11;;;;;;;8.02;2.40;;;21.90;99.90;;;;;;5073077;28;20056;-72
2023/07/09 00:59:39;;;;;;;6.15;2.35;;;22.00;99.90;;;;;;5071974;28;20083;-72
2023/07/09 01:02:07;;;;;;;11.48;2.25;;;22.00;99.90;;;;;;5073120;28;20029;-72
2023/07/09 01:04:32;;;;;;;6.45;2.58;;;21.90;99.90;;;;;;5072828;28;20123;-72
2023/07/09 01:06:58;;;;;;;5.05;1.98;;;21.90;99.90;;;;;;5072978;28;20543;-72
2023/07/09 01:09:25;;;;;;;5.03;2.60;;;21.90;99.90;;;;;;5073027;28;20028;-72
2023/07/09 01:11:50;;;;;;;7.13;1.58;;;21.90;99.90;;;;;;5072954;28;20091;-72
2023/07/09 01:14:21;;;;;;;8.07;1.80;;;21.90;99.90;;;;;;5073473;28;20040;-72
2023/07/09 01:16:56;;;;;;;3.70;1.75;;;21.80;99.90;;;;;;5072930;28;20391;-73
2023/07/09 01:19:25;;;;;;;7.57;2.95;;;21.80;99.90;;;;;;5072893;28;20384;-72
2023/07/09 01:22:00;;;;;;;3.58;1.73;;;21.70;99.90;;;;;;5071580;28;20032;-72
2023/07/09 01:24:50;;;;;;;6.43;2.10;;;21.80;99.90;;;;;;5072815;28;20040;-72
2023/07/09 01:27:17;;;;;;;5.05;2.28;;;21.70;99.90;;;;;;5074684;28;20024;-72
2023/07/09 01:29:48;;;;;;;10.02;2.58;;;21.70;99.90;;;;;;5076817;28;20099;-73
2023/07/09 01:32:18;;;;;;;6.15;2.20;;;21.60;99.90;;;;;;5077315;28;20021;-72
2023/07/09 01:34:47;;;;;;;4.97;1.98;;;21.60;99.90;;;;;;5076551;28;20024;-72
2023/07/09 01:37:14;;;;;;;4.63;2.22;;;21.50;99.90;;;;;;5075301;28;20025;-72
2023/07/09 01:39:40;;;;;;;5.22;2.22;;;21.50;99.90;;;;;;5075281;28;20123;-72
2023/07/09 01:42:08;;;;;;;6.18;3.35;;;21.50;99.90;;;;;;5075748;28;20021;-76
2023/07/09 01:44:35;;;;;;;4.43;2.03;;;21.50;99.90;;;;;;5076538;28;20032;-76
2023/07/09 01:47:03;;;;;;;6.00;2.22;;;21.50;99.90;;;;;;5076341;28;20113;-76
2023/07/09 01:49:29;;;;;;;5.90;2.03;;;21.60;99.90;;;;;;5076253;28;20044;-76
2023/07/09 01:51:55;;;;;;;5.60;2.08;;;21.50;99.90;;;;;;5076282;28;20024;-76
2023/07/09 01:54:21;;;;;;;5.53;2.17;;;21.40;99.90;;;;;;5076180;28;20029;-76
2023/07/09 01:56:46;;;;;;;6.20;3.00;;;21.40;99.90;;;;;;5076723;28;20036;-76
2023/07/09 01:59:12;;;;;;;5.90;2.38;;;21.40;99.90;;;;;;5075053;28;20020;-76
2023/07/09 02:01:38;;;;;;;9.27;3.35;;;21.30;99.90;;;;;;5076249;28;20028;-72
2023/07/09 02:04:03;;;;;;;6.28;3.22;;;21.30;99.90;;;;;;5075950;28;20066;-72
2023/07/09 02:06:31;;;;;;;6.68;2.42;;;21.30;99.90;;;;;;5074767;28;20086;-72
2023/07/09 02:08:58;;;;;;;8.93;2.78;;;21.20;99.90;;;;;;5076019;28;20025;-72
2023/07/09 02:11:24;;;;;;;4.65;2.45;;;21.10;99.90;;;;;;5075958;28;20388;-72
2023/07/09 02:13:49;;;;;;;7.90;3.03;;;21.10;99.90;;;;;;5076403;28;20023;-72
2023/07/09 02:16:15;;;;;;;8.32;3.35;;;21.10;99.90;;;;;;5076314;28;20047;-72
2023/07/09 02:18:41;;;;;;;5.38;2.40;;;21.10;99.90;;;;;;5075834;28;20041;-73
2023/07/09 02:21:06;;;;;;;6.35;2.67;;;21.00;99.90;;;;;;5076357;28;20025;-72
2023/07/09 02:23:32;;;;;;;8.93;2.85;;;21.00;99.90;;;;;;5074398;28;20029;-72
2023/07/09 02:25:57;;;;;;;6.63;2.67;;;21.00;99.90;;;;;;5075610;28;20085;-72
2023/07/09 02:28:23;;;;;;;6.45;2.90;;;21.00;99.90;;;;;;5074339;28;20079;-72
2023/07/09 02:30:48;;;;;;;8.82;2.80;;;20.90;99.90;;;;;;5076149;28;20024;-72
2023/07/09 02:33:14;;;;;;;6.18;2.67;;;20.90;99.90;;;;;;5075281;28;20488;-72
2023/07/09 02:35:40;;;;;;;8.18;3.08;;;;;;;;;;5075619;28;20029;-72
2023/07/09 02:38:05;;;;;;;5.03;2.50;;;20.90;99.90;;;;;;5075101;28;20032;-72
2023/07/09 02:40:31;;;;;;;7.15;2.83;;;20.80;99.90;;;;;;5076033;28;20032;-72
2023/07/09 02:42:56;;;;;;;4.35;2.78;;;20.70;99.90;;;;;;5075854;28;20063;-72
2023/07/09 02:45:22;;;;;;;5.80;3.15;;;20.80;99.90;;;;;;5075398;28;20055;-72
2023/07/09 02:47:48;;;;;;;5.80;2.78;;;20.70;99.90;;;;;;5073919;28;20025;-72
2023/07/09 02:50:14;;;;;;;5.68;3.00;;;20.70;99.90;;;;;;5073962;28;20020;-72
2023/07/09 02:52:42;;;;;;;7.80;2.55;;;20.70;99.90;;;;;;5075738;28;20025;-72
2023/07/09 02:55:08;;;;;;;7.47;2.47;;;20.70;99.90;;;;;;5075255;28;20096;-72
2023/07/09 02:57:33;;;;;;;5.13;2.90;;;20.70;99.90;;;;;;5073845;28;20095;-72
2023/07/09 03:00:05;;;;;;;7.20;2.78;;;20.70;99.90;;;;;;5075681;28;20157;-72
2023/07/09 03:02:31;;;;;;;8.18;3.30;;;20.70;99.90;;;;;;5075165;28;20035;-72
2023/07/09 03:04:56;;;;;;;6.00;3.15;;;20.70;99.90;;;;;;5074850;28;20036;-72
2023/07/09 03:07:22;;;;;;;5.32;2.67;;;20.60;99.90;;;;;;5075289;28;20103;-72
2023/07/09 03:09:48;;;;;;;5.45;2.60;;;20.60;99.90;;;;;;5073521;28;20111;-72
2023/07/09 03:12:13;;;;;;;6.13;2.88;;;20.60;99.90;;;;;;5074819;28;20029;-72
2023/07/09 03:14:39;;;;;;;5.88;2.58;;;20.60;99.90;;;;;;5075081;28;20025;-72
2023/07/09 03:17:04;;;;;;;5.38;3.20;;;20.60;99.90;;;;;;5075168;28;20025;-72
2023/07/09 03:19:30;;;;;;;6.25;3.28;;;20.60;99.90;;;;;;5074550;28;20050;-72
2023/07/09 03:21:55;;;;;;;4.90;2.60;;;20.60;99.90;;;;;;5074664;28;20016;-72
2023/07/09 03:24:21;;;;;;;7.72;2.90;;;20.60;99.90;;;;;;5074515;28;20096;-72
2023/07/09 03:26:47;;;;;;;6.97;2.85;;;20.60;99.90;;;;;;5074478;28;20028;-72
2023/07/09 03:29:13;;;;;;;5.78;2.97;;;20.60;99.90;;;;;;5074593;28;20052;-72
2023/07/09 03:31:38;;;;;;;4.82;2.55;;;20.60;99.90;;;;;;5074496;28;20451;-72
2023/07/09 03:34:04;;;;;;;5.78;3.00;;;20.60;99.90;;;;;;5074375;28;20028;-72
2023/07/09 03:36:30;;;;;;;9.20;2.65;;;20.50;99.90;;;;;;5074416;28;20027;-72
2023/07/09 03:38:55;;;;;;;8.98;4.25;;;20.40;99.90;;;;;;5074793;28;20495;-72
2023/07/09 03:41:21;;;;;;;5.93;3.50;;;20.40;99.90;;;;;;5074753;28;20020;-72
2023/07/09 03:43:49;;;;;;;7.32;2.88;;;20.40;99.90;;;;;;5074566;28;20077;-72
2023/07/09 03:46:15;;;;;;;5.22;3.22;;;20.40;99.90;;;;;;5074056;28;20471;-72
2023/07/09 03:48:40;;;;;;;6.25;3.15;;;20.40;99.90;;;;;;5074167;28;20048;-72
2023/07/09 03:51:06;;;;;;;5.65;3.17;;;20.40;99.90;;;;;;5073274;28;20033;-72
2023/07/09 03:53:32;;;;;;;8.68;3.50;;;20.40;99.90;;;;;;5074089;28;20024;-72
2023/07/09 03:55:59;;;;;;;5.13;2.80;;;20.40;99.90;;;;;;5073892;28;20430;-72
2023/07/09 03:58:25;;;;;;;7.50;3.40;;;20.30;99.90;;;;;;5072561;28;20484;-72
2023/07/09 04:00:51;;;;;;;5.68;2.90;;;20.30;99.90;;;;;;5074071;28;20035;-72
2023/07/09 04:03:17;;;;;;;4.35;2.22;;;20.30;99.90;;;;;;5073545;28;20039;-72
2023/07/09 04:05:42;;;;;;;7.22;3.70;;;20.40;99.90;;;;;;5074297;28;20486;-72
2023/07/09 04:08:08;;;;;;;8.57;3.97;;;20.30;99.90;;;;;;5073673;28;20024;-72
2023/07/09 04:10:33;;;;;;;6.13;3.17;;;20.40;99.90;;;;;;5073643;28;20096;-72
2023/07/09 04:12:59;;;;;;;6.75;3.03;;;20.40;99.90;;;;;;5072691;28;20024;-73
2023/07/09 04:15:24;;;;;;;10.23;3.55;;;20.40;99.90;;;;;;5073691;28;20027;-73
2023/07/09 04:17:51;;;;;;;7.82;3.55;;;20.40;99.90;;;;;;5073658;28;20028;-73
2023/07/09 04:20:17;;;;;;;8.65;3.05;;;20.50;99.90;;;;;;5073426;28;20514;-73
2023/07/09 04:22:42;;;;;;;8.43;3.47;;;20.50;99.90;;;;;;5073442;28;20021;-73
2023/07/09 04:25:10;;;;;;;6.60;3.42;;;20.60;99.90;;;;;;5074057;28;20491;-73
2023/07/09 04:27:37;;;;;;;9.83;3.43;;;20.60;99.90;;;;;;5072299;28;20028;-73
2023/07/09 04:30:04;;;;;;;9.77;3.25;;;20.70;99.90;;;;;;5073333;28;20277;-73
2023/07/09 04:32:30;;;;;;;7.17;3.43;;;20.80;99.90;;;;;;5073390;28;20420;-73
2023/07/09 04:34:56;;;;;;;9.38;3.97;;;20.80;99.90;;;;;;5072056;28;20122;-73
2023/07/09 04:37:22;;;;;;;7.93;4.13;;;20.80;99.90;;;;;;5073295;28;20388;-73
2023/07/09 04:39:47;;;;;;;6.30;3.55;;;20.90;99.90;;;;;;5071977;28;20028;-73
2023/07/09 04:42:16;;;;;;;6.82;3.55;;;20.90;99.90;;;;;;5073335;28;20493;-73
2023/07/09 04:44:42;;;;;;;;;;;20.90;99.90;;;;;;5073595;28;20032;-73
2023/07/09 04:47:08;;;;;;;6.57;3.63;;;20.90;99.90;;;;;;5071551;28;19915;-73
2023/07/09 04:49:34;;;;;;;5.22;3.10;;;21.00;99.90;;;;;;5071889;28;20021;-73
2023/07/09 04:52:00;;;;;;;4.68;2.83;;;21.00;99.90;;;;;;5071886;28;20025;-73
2023/07/09 04:54:27;;;;;;;11.02;4.43;;;21.10;99.90;;;;;;5073121;28;20090;-73
2023/07/09 04:56:52;;;;;;;8.27;4.07;;;21.10;99.90;;;;;;5071944;28;20111;-73
2023/07/09 04:59:19;;;;;;;6.82;3.42;;;21.20;99.90;;;;;;5073178;28;20526;-73
2023/07/09 05:01:44;;;;;;;11.35;3.83;;;21.20;99.90;;;;;;5075315;28;20020;-74
2023/07/09 05:04:10;;;;;;;8.88;4.22;;;21.30;99.90;;;;;;5077042;28;20119;-74
2023/07/09 05:06:35;;;;;;;8.63;3.90;;;21.40;99.90;;;;;;5075852;28;20036;-74
2023/07/09 05:09:01;;;;;;;10.02;4.75;;;21.50;99.90;;;;;;5077718;28;20048;-74
2023/07/09 05:11:27;;;;;;;9.07;4.53;;;21.50;99.90;;;;;;5075851;28;20052;-75
2023/07/09 05:13:52;;;;;;;12.68;4.93;;;21.90;99.90;;;;;;5077652;28;20032;-74
2023/07/09 05:16:18;;;;;;;10.65;5.25;;;21.70;99.90;;;;;;5077022;28;20496;-74
2023/07/09 05:18:45;;;;;;;11.05;5.60;;;21.70;99.90;;;;;;5075617;28;20384;-74
2023/07/09 05:21:10;;;;;;;11.68;4.43;;;21.90;99.90;;;;;;5076821;28;20081;-74
2023/07/09 05:23:36;;;;;;;15.52;4.78;;;22.00;99.90;;;;;;5077188;28;20531;-74
2023/07/09 05:26:03;;;;;;;11.90;5.43;;;22.10;99.90;;;;;;5075635;28;20024;-74
2023/07/09 05:28:29;;;;;;;13.50;5.15;;;22.20;99.90;;;;;;5076787;28;20036;-74
2023/07/09 05:30:55;;;;;;;9.77;4.80;;;22.40;99.90;;;;;;5076864;28;20029;-74
2023/07/09 05:33:21;;;;;;;9.13;4.93;;;22.30;99.90;;;;;;5075293;28;20020;-74
2023/07/09 05:35:48;;;;;;;11.60;5.30;;;22.70;99.90;;;;;;5075354;28;20052;-74
2023/07/09 05:38:14;;;;;;;10.18;5.75;;;22.80;99.90;;;;;;5076604;28;20024;-74
2023/07/09 05:40:41;;;;;;;12.45;4.35;;;23.00;99.90;;;;;;5076598;28;20070;-74
2023/07/09 05:43:06;;;;;;;9.10;4.80;;;23.10;99.90;;;;;;5076433;28;20120;-74
2023/07/09 05:45:32;;;;;;;12.50;6.03;;;23.20;99.90;;;;;;5076469;28;20052;-74
2023/07/09 05:47:59;;;;;;;10.60;5.78;;;23.40;99.90;;;;;;5076299;28;20411;-74
2023/07/09 05:50:26;;;;;;;9.57;5.45;;;23.50;99.90;;;;;;5076293;28;20024;-74
2023/07/09 05:52:51;;;;;;;11.90;5.75;;;23.60;99.90;;;;;;5076556;28;20075;-74
2023/07/09 05:55:17;;;;;;;12.02;6.40;;;23.80;99.90;;;;;;5076431;28;20028;-74
2023/07/09 05:57:42;;;;;;;12.25;5.68;;;23.80;99.90;;;;;;5076248;28;20515;-74
2023/07/09 06:00:09;;;;;;;10.18;5.55;;;23.90;99.90;;;;;;5077015;28;20514;-75
2023/07/09 06:02:34;;;;;;;16.02;6.72;;;24.00;99.90;;;;;;5075895;28;20034;-74
2023/07/09 06:05:01;;;;;;;10.90;6.03;;;24.10;99.90;;;;;;5074697;28;20115;-75
2023/07/09 06:07:27;;;;;;;13.00;6.75;;;24.20;99.90;;;;;;5075903;28;20182;-75
2023/07/09 06:09:53;;;;;;;14.73;7.28;;;24.40;99.90;;;;;;5076052;28;20040;-75
2023/07/09 06:12:19;;;;;;;11.73;5.82;;;24.50;99.90;;;;;;5075284;28;20043;-75
2023/07/09 06:14:46;;;;;;;12.65;7.10;;;24.60;99.90;;;;;;5075643;28;20017;-75
2023/07/09 06:17:12;;;;;;;14.25;6.95;;;24.70;99.90;;;;;;5074449;28;20028;-75
2023/07/09 06:19:38;;;;;;;9.48;5.22;;;24.90;99.90;;;;;;5075679;28;20024;-75
2023/07/09 06:22:04;;;;;;;9.75;4.72;;;25.10;99.90;;;;;;5075723;28;20392;-75
2023/07/09 06:24:30;;;;;;;11.25;4.65;;;25.20;99.90;;;;;;5075704;28;20438;-75
2023/07/09 06:26:55;;;;;;;10.82;5.00;;;25.30;99.90;;;;;;5075464;28;20028;-75
2023/07/09 06:29:21;;;;;;;14.35;5.82;;;25.40;99.90;;;;;;5074267;28;20029;-75
2023/07/09 06:31:46;;;;;;;9.30;4.53;;;25.50;99.90;;;;;;5075441;28;20032;-75
2023/07/09 06:34:12;;;;;;;9.63;4.75;;;25.60;99.90;;;;;;5075360;28;20024;-75
2023/07/09 06:36:38;;;;;;;8.18;4.65;;;25.80;99.90;;;;;;5075488;28;20463;-73
2023/07/09 06:39:04;;;;;;;9.60;4.43;;;25.90;99.90;;;;;;5075376;28;20048;-73
2023/07/09 06:41:29;;;;;;;10.70;5.25;;;26.00;99.90;;;;;;5073993;28;20020;-73
2023/07/09 06:43:55;;;;;;;11.35;4.75;;;26.20;99.90;;;;;;5073937;28;20035;-73
2023/07/09 06:46:21;;;;;;;11.48;4.25;;;26.30;99.90;;;;;;5075154;28;20435;-73
2023/07/09 06:48:47;;;;;;;10.18;4.65;;;26.50;99.90;;;;;;5075181;28;20021;-73
2023/07/09 06:51:12;;;;;;;9.18;4.40;;;26.60;99.90;;;;;;5075207;28;20021;-73
2023/07/09 06:53:39;;;;;;;13.18;4.75;;;26.70;99.90;;;;;;5075071;28;20047;-73
2023/07/09 06:56:05;;;;;;;9.70;4.28;;;26.90;99.90;;;;;;5074964;28;20103;-73
2023/07/09 06:58:33;;;;;;;9.43;4.97;;;27.00;99.90;;;;;;5075163;28;20083;-73
2023/07/09 07:01:03;;;;;;;7.93;3.50;;;27.10;99.90;;;;;;5075070;28;20377;-73
2023/07/09 07:03:29;;;;;;;8.23;3.70;;;27.30;99.90;;;;;;5075075;28;20028;-73
2023/07/09 07:05:54;;;;;;;7.78;3.90;;;27.40;99.90;;;;;;5075025;28;20035;-73
2023/07/09 07:08:22;;;;;;;10.43;3.97;;;27.60;99.90;;;;;;5074914;28;20122;-73
2023/07/09 07:10:49;;;;;;;8.88;3.83;;;27.60;99.90;;;;;;5074824;28;20013;-74
2023/07/09 07:13:15;;;;;;;8.75;4.13;;;27.70;99.90;;;;;;5075146;28;20078;-74
2023/07/09 07:15:40;;;;;;;9.52;4.20;;;27.80;99.90;;;;;;5075082;28;20472;-74
2023/07/09 07:18:07;;;;;;;11.55;3.97;;;27.90;99.90;;;;;;5074782;28;20100;-74
2023/07/09 07:20:33;;;;;;;5.85;3.20;;;27.90;99.90;;;;;;5074629;28;20100;-74
2023/07/09 07:22:59;;;;;;;9.50;3.75;;;27.90;99.90;;;;;;5075013;28;20056;-74
2023/07/09 07:25:25;;;;;;;10.15;3.88;;;28.00;99.90;;;;;;5073112;28;20484;-74
2023/07/09 07:27:51;;;;;;;7.13;4.03;;;28.00;99.90;;;;;;5074448;28;20066;-74
2023/07/09 07:30:17;;;;;;;7.20;4.03;;;28.10;99.90;;;;;;5073193;28;20029;-74
2023/07/09 07:32:47;;;;;;;7.45;3.42;;;28.20;99.90;;;;;;5072949;28;20357;-75
2023/07/09 07:35:13;;;;;;;8.82;4.10;;;28.20;99.90;;;;;;5074465;28;20375;-76
2023/07/09 07:37:42;;;;;;;6.13;3.33;;;28.30;99.90;;;;;;5074294;28;20094;-76
2023/07/09 07:40:09;;;;;;;7.50;2.92;;;28.40;99.90;;;;;;5074237;28;20043;-76
2023/07/09 07:42:34;;;;;;;6.82;3.00;;;28.60;99.90;;;;;;5073102;28;20419;-76
2023/07/09 07:45:09;;;;;;;8.60;3.45;;;28.60;99.90;;;;;;5074238;28;20081;-76
2023/07/09 07:47:35;;;;;;;8.80;4.10;;;28.70;99.90;;;;;;5074060;28;20028;-76
2023/07/09 07:50:00;;;;;;;7.93;4.20;;;28.80;99.90;;;;;;5072701;28;20052;-76
2023/07/09 07:52:28;;;;;;;8.77;4.15;;;28.80;99.90;;;;;;5072712;28;20060;-75
2023/07/09 07:54:54;;;;;;;9.85;4.38;;;28.80;99.90;;;;;;5072624;28;20365;-75
2023/07/09 07:57:22;;;;;;;8.60;4.97;;;28.80;99.90;;;;;;5073989;28;20024;-75
2023/07/09 07:59:47;;;;;;;12.23;5.03;;;28.80;99.90;;;;;;5072523;28;20075;-75
2023/07/09 08:02:14;;;;;;;9.10;4.40;;;28.70;99.90;;;;;;5074197;28;20029;-75
2023/07/09 08:04:41;;;;;;;7.78;4.78;;;28.60;99.90;;;;;;5073600;28;20028;-75
2023/07/09 08:07:10;;;;;;;5.47;3.78;;;28.40;99.90;;;;;;5073570;28;20051;-76
2023/07/09 08:09:36;;;;;;;9.05;4.72;;;28.50;99.90;;;;;;5073609;28;20403;-75
2023/07/09 08:12:08;;;;;;;7.15;3.78;;;28.60;99.90;;;;;;5073445;28;20020;-75
2023/07/09 08:14:34;;;;;;;9.63;3.80;;;28.60;99.90;;;;;;5073408;28;20017;-75
2023/07/09 08:17:03;;;;;;;12.48;4.63;;;28.80;99.90;;;;;;5073389;28;20020;-75
2023/07/09 08:19:28;;;;;;;10.15;4.35;;;28.80;99.90;;;;;;5073379;28;20099;-75
2023/07/09 08:21:54;;;;;;;8.20;3.53;;;28.90;99.90;;;;;;5073646;28;20035;-75
2023/07/09 08:24:19;;;;;;;7.90;3.70;;;29.00;99.90;;;;;;5073887;28;20040;-76
2023/07/09 08:26:45;;;;;;;8.43;3.75;;;29.10;99.90;;;;;;5073279;28;20025;-76
2023/07/09 08:29:10;;;;;;;13.55;3.50;;;29.20;99.90;;;;;;5073337;28;20016;-75
2023/07/09 08:31:55;;;;;;;6.28;3.00;;;29.30;99.90;;;;;;5073149;28;20028;-74
2023/07/09 08:34:21;;;;;;;12.68;3.38;;;29.40;99.90;;;;;;5073292;28;20031;-74
2023/07/09 08:36:46;;;;;;;4.28;2.63;;;29.50;99.90;;;;;;5071604;28;20127;-74
2023/07/09 08:39:12;;;;;;;7.50;3.25;;;29.50;99.90;;;;;;5071843;28;20024;-74
2023/07/09 08:41:55;;;;;;;9.75;4.30;;;29.60;99.90;;;;;;5072245;28;20029;-75
2023/07/09 08:44:27;;;;;;;3.78;2.42;;;29.70;99.90;;;;;;5072806;28;20028;-73
2023/07/09 08:47:13;;;;;;;7.63;3.22;;;29.70;99.90;;;;;;5071099;28;20082;-74
2023/07/09 08:49:59;;;;;;;9.55;2.95;;;29.70;99.90;;;;;;5071808;28;20027;-74
2023/07/09 08:52:33;;;;;;;12.38;3.20;;;29.80;99.90;;;;;;5073110;28;20024;-75
2023/07/09 08:55:05;;;;;;;8.25;3.00;;;29.90;99.90;;;;;;5072963;28;20047;-73
2023/07/09 08:57:41;;;;;;;6.78;3.22;;;29.90;99.90;;;;;;5073116;28;20043;-74
2023/07/09 09:00:26;;;;;;;6.45;2.85;;;29.90;99.90;;;;;;5073032;28;20437;-74
2023/07/09 09:02:57;;;;;;;7.28;2.90;;;29.90;99.90;;;;;;5072915;28;20081;-74
2023/07/09 09:05:25;;;;;;;7.95;3.17;;;30.00;99.90;;;;;;5073618;28;20029;-73
2023/07/09 09:08:00;;;;;;;5.15;2.72;;;30.00;99.90;;;;;;5072880;28;20074;-74
2023/07/09 09:10:33;;;;;;;7.60;3.67;;;30.20;99.90;;;;;;5073025;28;20021;-74
2023/07/09 09:13:05;;;;;;;5.78;2.58;;;30.40;99.90;;;;;;5073313;28;20472;-74
2023/07/09 09:15:32;;;;;;;6.72;2.40;;;30.60;99.90;;;;;;5071634;28;20078;-73
2023/07/09 09:18:13;;;;;;;6.78;3.33;;;30.50;99.90;;;;;;5072859;28;20032;-73
2023/07/09 09:20:40;;;;;;;8.27;3.60;;;30.60;99.90;;;;;;5073437;28;20494;-73
2023/07/09 09:23:06;;;;;;;7.63;3.20;;;30.60;99.90;;;;;;5072805;28;20020;-74
2023/07/09 09:25:34;;;;;;;6.20;3.45;;;30.50;99.90;;;;;;5071504;28;20119;-73
2023/07/09 09:28:01;;;;;;;5.63;2.85;;;30.50;99.90;;;;;;5072668;28;20025;-73
2023/07/09 09:30:28;;;;;;;8.20;3.97;;;30.60;99.90;;;;;;5072733;28;20067;-73
2023/07/09 09:32:57;;;;;;;7.15;3.13;;;31.00;99.90;;;;;;5072536;28;20104;-74
2023/07/09 09:35:29;;;;;;;5.20;3.08;;;31.00;99.90;;;;;;5072692;28;20100;-73
2023/07/09 09:37:57;;;;;;;6.40;2.70;;;31.10;99.90;;;;;;5072629;28;20031;-73
2023/07/09 09:40:24;;;;;;;9.00;4.13;;;31.30;99.90;;;;;;5072700;28;20029;-73
2023/07/09 09:42:51;;;;;;;5.25;3.33;;;31.50;99.60;;;;;;5072624;28;20021;-73
2023/07/09 09:45:20;;;;;;;3.92;2.35;;;31.60;99.20;;;;;;5072668;28;20107;-73
2023/07/09 09:47:47;;;;;;;8.93;3.78;;;31.80;99.50;;;;;;5073071;28;20035;-73
2023/07/09 09:50:21;;;;;;;19.58;3.70;;;32.00;98.90;;;;;;5076892;28;20023;-73
2023/07/09 09:52:47;;;;;;;9.88;3.55;;;31.90;98.30;;;;;;5076232;28;20059;-73
2023/07/09 09:55:19;;;;;;;5.35;3.35;;;31.90;98.80;;;;;;5075007;28;20112;-73
2023/07/09 09:57:53;;;;;;;8.85;3.83;;;31.90;98.30;;;;;;5075036;28;20063;-73
2023/07/09 10:00:22;;;;;;;11.65;3.97;;;31.80;98.10;;;;;;5074957;28;20025;-73
2023/07/09 10:02:48;;;;;;;6.20;3.63;;;31.80;98.40;;;;;;5076085;28;20021;-74
2023/07/09 10:05:25;;;;;;;8.65;4.25;;;31.80;98.40;;;;;;5075104;28;20388;-73
2023/07/09 10:08:06;;;;;;;7.00;3.95;;;32.00;98.30;;;;;;5076511;28;20060;-73
2023/07/09 10:10:33;;;;;;;6.57;3.72;;;32.20;97.80;;;;;;5076010;28;20104;-73
2023/07/09 10:13:11;;;;;;;8.63;3.87;;;32.40;97.90;;;;;;5075967;28;20021;-73
2023/07/09 10:16:00;;;;;;;7.78;3.53;;;32.40;97.80;;;;;;5075986;28;20706;-73
2023/07/09 10:18:44;;;;;;;5.20;3.53;;;32.60;97.60;;;;;;5075895;28;20027;-73
2023/07/09 10:21:19;;;;;;;6.60;3.97;;;32.70;97.70;;;;;;5076416;28;20031;-73
2023/07/09 10:24:03;;;;;;;8.85;4.50;;;32.80;96.80;;;;;;5074809;28;20020;-73
2023/07/09 10:26:48;;;;;;;7.18;3.97;;;32.80;96.20;;;;;;5075725;28;20056;-73
2023/07/09 10:29:40;;;;;;;8.55;4.32;;;32.60;97.20;;;;;;5075731;28;20051;-73
2023/07/09 10:32:09;;;;;;;8.75;4.35;;;32.60;96.30;;;;;;5075715;28;20055;-73
2023/07/09 10:34:52;;;;;;;10.65;3.40;;;32.30;96.70;;;;;;5075567;28;20103;-73
2023/07/09 10:37:54;;;;;;;7.78;4.05;;;32.10;97.20;;;;;;5075541;28;20067;-73
2023/07/09 10:40:43;;;;;;;8.57;3.28;;;31.90;97.10;;;;;;5075522;28;20067;-73
2023/07/09 10:43:18;;;;;;;7.32;3.30;;;31.80;97.90;;;;;;5075444;28;20020;-73
2023/07/09 10:45:47;;;;;;;5.85;2.72;;;31.70;97.50;;;;;;5074593;28;20024;-74
2023/07/09 10:48:18;;;;;;;6.25;3.33;;;31.70;98.20;;;;;;5075285;28;20021;-74
2023/07/09 10:50:52;;;;;;;5.97;2.58;;;32.00;96.80;;;;;;5075860;28;20032;-74
2023/07/09 10:53:44;;;;;;;6.43;2.80;;;32.20;96.70;;;;;;5073911;28;20021;-74
2023/07/09 10:56:20;;;;;;;6.25;3.10;;;32.40;96.50;;;;;;5074033;28;20025;-74
2023/07/09 10:59:05;;;;;;;3.78;2.35;;;32.70;96.50;;;;;;5074853;28;20424;-73
2023/07/09 11:01:36;;;;;;;6.32;2.95;;;32.90;94.90;;;;;;5075406;28;20498;-74
2023/07/09 11:04:08;;;;;;;8.38;3.38;;;32.90;95.20;;;;;;5074849;28;20032;-73
2023/07/09 11:06:40;;;;;;;5.03;2.95;;;32.90;94.80;;;;;;5073692;28;20031;-74
2023/07/09 11:09:29;;;;;;;6.80;3.50;;;33.00;95.30;;;;;;5073567;28;20078;-74
2023/07/09 11:11:58;;;;;;;8.80;3.47;;;33.20;94.70;;;;;;5063082;28;20033;-74
2023/07/09 11:14:43;;;;;;;7.95;3.50;;;33.20;94.20;;;;;;5075633;28;20020;-74
2023/07/09 11:17:14;;;;;;;7.65;2.88;;;33.00;94.40;;;;;;5074852;28;20025;-74
2023/07/09 11:19:46;;;;;;;7.38;3.33;;;32.90;95.90;;;;;;5073483;28;20498;-74
2023/07/09 11:22:24;;;;;;;6.13;2.80;;;32.90;96.20;;;;;;5074692;28;20021;-74
2023/07/09 11:24:50;;;;;;;;;;;33.00;95.30;;;;;;5074926;28;20024;-74
2023/07/09 11:27:22;;;;;;;7.22;3.28;;;33.20;95.00;;;;;;5075066;28;19908;-74
2023/07/09 11:29:56;;;;;;;7.82;3.97;;;33.20;94.70;;;;;;5074451;28;20025;-74
2023/07/09 11:32:22;;;;;;;6.20;3.72;;;33.20;94.20;;;;;;5074444;28;20025;-74
2023/07/09 11:34:48;;;;;;;4.85;3.20;;;33.20;94.30;;;;;;5074292;28;20020;-74
2023/07/09 11:37:15;;;;;;;5.78;3.30;;;33.40;96.00;;;;;;5074298;28;20098;-74
2023/07/09 11:39:41;;;;;;;7.57;3.25;;;33.40;95.10;;;;;;5074296;28;20024;-74
2023/07/09 11:42:52;;;;;;;4.45;2.97;;;33.40;94.70;;;;;;5074246;28;20059;-74
2023/07/09 11:45:25;;;;;;;5.03;2.53;;;33.40;94.80;;;;;;5012578;28;20034;-74
2023/07/09 11:48:19;;;;;;;2.88;2.38;;;33.40;93.50;;;;;;5066106;28;20042;-74
2023/07/09 11:50:48;;;;;;;2.85;1.75;;;33.00;93.10;;;;;;5074632;28;20017;-74
2023/07/09 11:53:30;;;;;;;7.55;2.85;;;33.10;94.20;;;;;;5073854;28;20100;-74
2023/07/09 11:55:55;;;;;;;3.47;2.17;;;33.20;93.20;;;;;;5072694;28;20024;-74
2023/07/09 11:58:21;;;;;;;5.90;2.00;;;33.10;94.10;;;;;;5073938;28;20120;-74
2023/07/09 12:00:51;;;;;;;1.80;1.23;;;33.00;94.30;;;;;;5073803;28;20104;-74
2023/07/09 12:03:43;;;;;;;4.55;1.33;;;32.90;94.20;;;;;;5072309;28;20025;-74
2023/07/09 12:06:23;;;;;;;3.92;1.20;;;32.70;93.60;;;;;;5074292;28;20464;-74
2023/07/09 12:08:50;;;;;;;4.35;1.15;;;32.50;93.30;;;;;;5074252;28;20016;-74
2023/07/09 12:11:25;;;;;;;4.20;1.07;;;32.60;93.40;;;;;;5071860;28;20024;-74
2023/07/09 12:13:52;;;;;;;2.40;1.17;;;32.90;93.40;;;;;;5073584;28;20021;-74
2023/07/09 12:16:25;;;;;;;2.83;1.05;;;33.30;92.50;;;;;;5073630;28;20108;-74
2023/07/09 12:18:51;;;;;;;3.53;0.90;;;33.40;91.30;;;;;;5072322;28;20020;-74
2023/07/09 12:21:17;;;;;;;3.05;1.33;;;33.40;90.50;;;;;;5072343;28;20078;-74
2023/07/09 12:23:43;;;;;;;2.15;1.30;;;33.40;89.70;;;;;;5073389;28;20063;-74
2023/07/09 12:26:14;;;;;;;2.10;1.58;;;33.30;86.10;;;;;;5072032;28;20057;-74
2023/07/09 12:28:40;;;;;;;2.28;0.98;;;33.40;87.80;;;;;;5073355;28;20013;-74
2023/07/09 12:31:13;;;;;;;3.78;0.50;;;33.60;90.00;;;;;;5072163;28;20021;-74
2023/07/09 12:33:48;;;;;;;5.60;1.40;;;33.70;87.70;;;;;;5073550;28;20056;-74
2023/07/09 12:36:14;;;;;;;2.35;0.80;;;33.50;86.90;;;;;;5073890;28;20086;-74
2023/07/09 12:38:43;;;;;;;2.60;0.60;;;33.40;87.40;;;;;;5073243;28;20035;-74
2023/07/09 12:41:23;;;;;;;0.60;0.10;;;33.50;87.80;;;;;;5073873;28;20055;-74
2023/07/09 12:43:54;;;;;;;1.45;0.30;;;33.30;88.00;;;;;;5072062;28;20029;-73
2023/07/09 12:46:21;;;;;;;1.85;0.40;;;33.30;87.70;;;;;;5071959;28;20395;-74
2023/07/09 12:48:47;;;;;;;5.72;0.60;;;33.30;88.90;;;;;;5071818;28;20087;-74
2023/07/09 12:51:19;;;;;;;4.32;0.43;;;33.30;86.70;;;;;;5073188;28;20532;-74
2023/07/09 12:53:45;;;;;;;1.60;0.50;;;33.40;85.40;;;;;;5073088;28;20024;-74
2023/07/09 12:56:13;;;;;;;0.90;0.20;;;33.50;84.90;;;;;;5073049;28;20021;-74